createdAt,value
2018-11-12T00:01:24.269Z,11.10
2018-11-12T00:03:52.697Z,10.53
2018-11-12T00:06:21.070Z,11.67
2018-11-12T00:08:49.462Z,11.27
2018-11-12T00:11:17.835Z,10.63
2018-11-12T00:13:46.229Z,11.10
2018-11-12T00:16:14.593Z,11.03
2018-11-12T00:18:42.986Z,10.47
2018-11-12T00:21:11.351Z,11.60
2018-11-12T00:23:39.747Z,11.17
2018-11-12T00:26:08.174Z,10.47
2018-11-12T00:28:36.574Z,10.60
2018-11-12T00:31:04.963Z,11.00
2018-11-12T00:33:33.363Z,10.07
2018-11-12T00:36:01.741Z,10.37
2018-11-12T00:38:30.136Z,11.40
2018-11-12T00:40:58.510Z,8.00
2018-11-12T00:43:27.013Z,10.63
2018-11-12T00:45:55.454Z,10.40
2018-11-12T00:48:23.845Z,10.83
2018-11-12T00:50:52.370Z,10.47
2018-11-12T00:53:20.760Z,10.90
2018-11-12T00:55:49.146Z,10.17
2018-11-12T00:58:17.542Z,10.67
2018-11-12T01:00:45.910Z,10.07
2018-11-12T01:03:14.320Z,10.53
2018-11-12T01:05:42.692Z,11.13
2018-11-12T01:08:11.117Z,10.67
2018-11-12T01:10:39.494Z,10.57
2018-11-12T01:13:07.910Z,11.80
2018-11-12T01:15:36.277Z,10.87
2018-11-12T01:18:04.694Z,12.17
2018-11-12T01:20:33.090Z,11.50
2018-11-12T01:23:01.465Z,12.67
2018-11-12T01:25:29.865Z,11.23
2018-11-12T01:27:58.242Z,10.77
2018-11-12T01:30:26.642Z,12.37
2018-11-12T01:32:55.019Z,10.60
2018-11-12T01:35:23.417Z,11.87
2018-11-12T01:37:51.795Z,13.00
2018-11-12T01:40:20.188Z,10.90
2018-11-12T01:42:48.582Z,12.30
2018-11-12T01:45:18.186Z,11.67
2018-11-12T01:47:47.666Z,12.50
2018-11-12T01:50:16.583Z,11.90
2018-11-12T01:52:45.546Z,12.40
2018-11-12T01:55:15.074Z,13.50
2018-11-12T01:57:43.942Z,12.57
2018-11-12T02:00:15.583Z,12.87
2018-11-12T02:02:45.422Z,13.10
2018-11-12T02:05:13.819Z,13.60
2018-11-12T02:07:42.203Z,12.87
2018-11-12T02:10:12.214Z,13.63
2018-11-12T02:12:40.986Z,12.40
2018-11-12T02:15:13.650Z,13.17
2018-11-12T02:17:42.661Z,12.30
2018-11-12T02:20:12.694Z,10.73
2018-11-12T02:22:41.566Z,12.00
2018-11-12T02:25:10.957Z,11.73
2018-11-12T02:27:39.569Z,12.00
2018-11-12T02:30:12.765Z,10.83
2018-11-12T02:32:41.145Z,11.80
2018-11-12T02:35:09.935Z,12.47
2018-11-12T02:37:38.797Z,9.90
2018-11-12T02:40:09.151Z,11.40
2018-11-12T02:42:37.545Z,10.87
2018-11-12T02:45:06.878Z,11.17
2018-11-12T02:47:35.265Z,10.87
2018-11-12T02:50:03.704Z,9.80
2018-11-12T02:52:32.086Z,11.33
2018-11-12T02:55:00.481Z,10.53
2018-11-12T02:57:28.947Z,10.17
2018-11-12T02:59:57.299Z,10.77
2018-11-12T03:02:25.677Z,11.27
2018-11-12T03:04:54.078Z,11.50
2018-11-12T03:07:22.467Z,13.33
2018-11-12T03:09:50.869Z,13.43
2018-11-12T03:12:19.242Z,15.67
2018-11-12T03:14:47.637Z,13.73
2018-11-12T03:17:16.020Z,13.80
2018-11-12T03:19:44.421Z,15.00
2018-11-12T03:22:12.796Z,14.17
2018-11-12T03:24:41.206Z,17.07
2018-11-12T03:27:09.577Z,15.80
2018-11-12T03:29:37.978Z,16.70
2018-11-12T03:32:06.558Z,15.87
2018-11-12T03:34:34.972Z,15.80
2018-11-12T03:37:03.341Z,15.17
2018-11-12T03:39:31.752Z,17.33
2018-11-12T03:42:00.157Z,17.00
2018-11-12T03:44:28.530Z,18.23
2018-11-12T03:46:57.042Z,16.80
2018-11-12T03:49:25.417Z,18.13
2018-11-12T03:51:53.813Z,16.77
2018-11-12T03:54:22.193Z,17.10
2018-11-12T03:56:50.597Z,16.90
2018-11-12T03:59:18.965Z,17.70
2018-11-12T04:01:47.369Z,16.20
2018-11-12T04:04:17.110Z,17.77
2018-11-12T04:06:46.433Z,18.30
2018-11-12T04:09:14.809Z,17.80
2018-11-12T04:11:44.531Z,16.23
2018-11-12T04:14:13.389Z,18.73
2018-11-12T04:16:43.942Z,17.93
2018-11-12T04:19:12.394Z,18.70
2018-11-12T04:21:40.813Z,18.57
2018-11-12T04:24:09.194Z,17.50
2018-11-12T04:26:37.589Z,18.43
2018-11-12T04:29:06.006Z,18.80
2018-11-12T04:31:34.403Z,18.73
2018-11-12T04:34:02.788Z,18.20
2018-11-12T04:36:31.186Z,18.10
2018-11-12T04:38:59.566Z,19.10
2018-11-12T04:41:27.989Z,17.93
2018-11-12T04:43:56.367Z,18.20
2018-11-12T04:46:24.771Z,16.60
2018-11-12T04:48:53.137Z,18.90
2018-11-12T04:51:21.541Z,17.80
2018-11-12T04:53:49.977Z,18.40
2018-11-12T04:56:18.351Z,20.30
2018-11-12T04:58:46.730Z,19.50
2018-11-12T05:01:15.149Z,17.63
2018-11-12T05:03:43.517Z,17.50
2018-11-12T05:06:11.914Z,19.20
2018-11-12T05:08:40.291Z,19.23
2018-11-12T05:11:08.733Z,18.30
2018-11-12T05:13:37.127Z,19.03
2018-11-12T05:16:06.026Z,14.63
2018-11-12T05:18:34.463Z,18.20
2018-11-12T05:21:02.919Z,18.13
2018-11-12T05:23:31.266Z,16.63
2018-11-12T05:25:59.671Z,18.70
2018-11-12T05:28:28.046Z,19.20
2018-11-12T05:30:56.592Z,18.60
2018-11-12T05:33:24.977Z,18.40
2018-11-12T05:35:53.407Z,18.23
2018-11-12T05:38:21.852Z,20.00
2018-11-12T05:40:50.185Z,17.97
2018-11-12T05:43:18.605Z,19.53
2018-11-12T05:45:46.986Z,15.13
2018-11-12T05:48:15.385Z,18.10
2018-11-12T05:50:43.764Z,19.43
2018-11-12T05:53:12.158Z,18.43
2018-11-12T05:55:40.536Z,18.90
2018-11-12T05:58:08.934Z,18.80
2018-11-12T06:00:37.950Z,17.10
2018-11-12T06:03:06.554Z,17.37
2018-11-12T06:05:35.385Z,18.73
2018-11-12T06:08:03.999Z,19.67
2018-11-12T06:10:33.173Z,19.20
2018-11-12T06:13:01.574Z,17.17
2018-11-12T06:15:30.020Z,20.07
2018-11-12T06:17:58.409Z,19.13
2018-11-12T06:20:28.837Z,22.10
2018-11-12T06:22:57.262Z,21.97
2018-11-12T06:25:27.817Z,23.10
2018-11-12T06:27:56.354Z,23.77
2018-11-12T06:30:27.373Z,23.07
2018-11-12T06:32:55.770Z,19.43
2018-11-12T06:35:24.157Z,19.03
2018-11-12T06:37:53.161Z,19.37
2018-11-12T06:40:22.642Z,19.97
2018-11-12T06:42:51.349Z,19.50
2018-11-12T06:45:23.045Z,18.57
2018-11-12T06:47:52.307Z,18.03
2018-11-12T06:50:22.090Z,17.83
2018-11-12T06:52:50.631Z,18.80
2018-11-12T06:55:19.573Z,19.03
2018-11-12T06:57:48.491Z,21.10
2018-11-12T07:00:19.221Z,18.50
2018-11-12T07:02:47.618Z,20.23
2018-11-12T07:05:16.262Z,18.63
2018-11-12T07:07:44.678Z,21.83
2018-11-12T07:10:14.553Z,18.53
2018-11-12T07:12:43.826Z,20.53
2018-11-12T07:15:16.751Z,19.90
2018-11-12T07:17:45.245Z,18.77
2018-11-12T07:20:15.034Z,18.13
2018-11-12T07:22:43.654Z,20.03
2018-11-12T07:25:12.982Z,18.47
2018-11-12T07:27:41.352Z,18.63
2018-11-12T07:30:13.058Z,20.60
2018-11-12T07:32:41.455Z,18.47
2018-11-12T07:35:11.467Z,20.10
2018-11-12T07:37:40.079Z,20.67
2018-11-12T07:40:09.331Z,26.07
2018-11-12T07:42:38.257Z,21.00
2018-11-12T07:45:08.307Z,27.30
2018-11-12T07:47:36.861Z,24.63
2018-11-12T07:50:07.711Z,29.47
2018-11-12T07:52:36.351Z,25.70
2018-11-12T07:55:05.701Z,25.00
2018-11-12T07:57:34.123Z,26.37
2018-11-12T08:00:02.513Z,26.07
2018-11-12T08:02:30.924Z,32.90
2018-11-12T08:04:59.327Z,25.80
2018-11-12T08:07:27.710Z,20.10
2018-11-12T08:09:56.106Z,22.70
2018-11-12T08:12:24.477Z,20.93
2018-11-12T08:14:52.906Z,20.77
2018-11-12T08:17:21.285Z,20.40
2018-11-12T08:19:49.701Z,19.37
2018-11-12T08:22:18.079Z,18.47
2018-11-12T08:24:46.515Z,21.50
2018-11-12T08:27:14.915Z,20.00
2018-11-12T08:29:43.361Z,20.30
2018-11-12T08:32:11.719Z,20.80
2018-11-12T08:34:40.118Z,19.30
2018-11-12T08:37:08.508Z,20.67
2018-11-12T08:39:37.072Z,20.53
2018-11-12T08:42:05.522Z,19.63
2018-11-12T08:44:33.917Z,19.07
2018-11-12T08:47:02.290Z,20.17
2018-11-12T08:49:30.772Z,23.47
2018-11-12T08:51:59.120Z,20.77
2018-11-12T08:54:27.558Z,22.57
2018-11-12T08:56:55.922Z,20.40
2018-11-12T08:59:24.408Z,20.83
2018-11-12T09:01:52.759Z,19.50
2018-11-12T09:04:21.162Z,20.73
2018-11-12T09:06:49.562Z,20.67
2018-11-12T09:09:18.016Z,20.00
2018-11-12T09:11:46.388Z,20.77
2018-11-12T09:14:14.789Z,19.20
2018-11-12T09:16:43.170Z,20.40
2018-11-12T09:19:11.566Z,20.57
2018-11-12T09:21:39.937Z,19.60
2018-11-12T09:24:08.333Z,18.80
2018-11-12T09:26:36.735Z,21.40
2018-11-12T09:29:05.261Z,21.60
2018-11-12T09:31:33.777Z,20.90
2018-11-12T09:34:02.076Z,22.97
2018-11-12T09:36:30.460Z,21.80
2018-11-12T09:41:27.264Z,20.53
2018-11-12T09:43:55.675Z,19.97
2018-11-12T09:46:24.058Z,19.20
2018-11-12T09:48:52.528Z,19.50
2018-11-12T09:51:21.450Z,19.43
2018-11-12T09:53:49.961Z,19.00
2018-11-12T09:56:18.299Z,18.90
2018-11-12T09:58:46.698Z,20.10
2018-11-12T10:01:15.237Z,20.20
2018-11-12T10:03:44.888Z,17.47
2018-11-12T10:06:13.448Z,19.77
2018-11-12T10:08:42.685Z,18.13
2018-11-12T10:11:11.320Z,19.60
2018-11-12T10:13:40.035Z,18.17
2018-11-12T10:16:09.021Z,19.70
2018-11-12T10:18:34.485Z,18.60
2018-11-12T10:21:02.910Z,19.70
2018-11-12T10:23:31.287Z,19.60
2018-11-12T10:25:59.677Z,19.67
2018-11-12T10:28:28.041Z,17.47
2018-11-12T10:30:56.443Z,18.80
2018-11-12T10:33:24.805Z,18.80
2018-11-12T10:35:53.197Z,18.50
2018-11-12T10:38:21.590Z,19.10
2018-11-12T10:40:50.051Z,17.87
2018-11-12T10:43:18.443Z,18.60
2018-11-12T10:45:46.849Z,18.63
2018-11-12T10:48:15.237Z,17.40
2018-11-12T10:50:43.645Z,18.23
2018-11-12T10:53:12.017Z,17.50
2018-11-12T10:55:40.466Z,17.80
2018-11-12T10:58:08.830Z,17.27
2018-11-12T11:00:42.432Z,19.97
2018-11-12T11:04:19.384Z,19.97
2018-11-12T11:06:47.791Z,18.30
2018-11-12T11:09:16.166Z,19.03
2018-11-12T11:11:44.611Z,19.30
2018-11-12T11:14:13.011Z,19.40
2018-11-12T11:16:41.414Z,19.23
2018-11-12T11:19:09.793Z,18.17
2018-11-12T11:21:38.512Z,19.90
2018-11-12T11:24:06.897Z,18.63
2018-11-12T11:26:35.312Z,20.30
2018-11-12T11:29:03.698Z,20.47
2018-11-12T11:31:32.094Z,18.43
2018-11-12T11:34:00.473Z,20.07
2018-11-12T11:36:28.883Z,18.67
2018-11-12T11:38:57.279Z,19.70
2018-11-12T11:41:25.707Z,18.47
2018-11-12T11:43:54.113Z,19.70
2018-11-12T11:46:22.518Z,18.47
2018-11-12T11:48:51.191Z,16.97
2018-11-12T11:51:19.611Z,18.57
2018-11-12T11:53:47.995Z,18.57
2018-11-12T11:56:16.503Z,17.93
2018-11-12T11:58:44.914Z,19.40
2018-11-12T12:01:13.316Z,17.37
2018-11-12T12:03:41.689Z,16.30
2018-11-12T12:06:10.093Z,17.73
2018-11-12T12:08:38.527Z,16.57
2018-11-12T12:11:06.915Z,17.77
2018-11-12T12:13:35.301Z,15.83
2018-11-12T12:16:03.693Z,15.80
2018-11-12T12:18:32.110Z,17.00
2018-11-12T12:21:00.539Z,16.50
2018-11-12T12:23:28.893Z,16.77
2018-11-12T12:25:57.348Z,14.83
2018-11-12T12:28:25.697Z,14.97
2018-11-12T12:30:54.094Z,14.20
2018-11-12T12:33:22.506Z,15.40
2018-11-12T12:35:50.987Z,14.70
2018-11-12T12:38:19.299Z,14.70
2018-11-12T12:40:47.694Z,13.03
2018-11-12T12:43:16.089Z,14.97
2018-11-12T12:45:44.694Z,10.83
2018-11-12T12:48:12.974Z,14.03
2018-11-12T12:50:41.373Z,11.70
2018-11-12T12:53:09.766Z,14.80
2018-11-12T12:55:38.759Z,12.60
2018-11-12T12:58:07.138Z,12.17
2018-11-12T13:00:35.513Z,11.13
2018-11-12T13:03:03.914Z,11.70
2018-11-12T13:05:32.283Z,11.70
2018-11-12T13:08:00.708Z,10.50
2018-11-12T13:10:29.082Z,11.30
2018-11-12T13:12:57.492Z,10.13
2018-11-12T13:15:25.980Z,9.10
2018-11-12T13:17:54.379Z,9.10
2018-11-12T13:20:24.143Z,9.27
2018-11-12T13:22:52.514Z,10.53
2018-11-12T13:25:20.889Z,10.43
2018-11-12T13:27:49.550Z,11.00
2018-11-12T13:30:19.347Z,11.43
2018-11-12T13:32:48.059Z,9.37
2018-11-12T13:35:18.169Z,10.60
2018-11-12T13:37:46.571Z,10.30
2018-11-12T13:40:17.627Z,13.97
2018-11-12T13:42:49.658Z,9.83
2018-11-12T13:45:18.066Z,10.57
2018-11-12T13:47:46.829Z,10.50
2018-11-12T13:50:16.709Z,9.77
2018-11-12T13:52:45.482Z,10.00
2018-11-12T13:55:14.809Z,10.70
2018-11-12T13:57:43.226Z,10.67
2018-11-12T14:00:13.869Z,9.80
2018-11-12T14:02:43.046Z,9.93
2018-11-12T14:05:13.445Z,11.03
2018-11-12T14:07:42.362Z,10.60
2018-11-12T14:10:12.354Z,9.97
2018-11-12T14:12:41.275Z,8.33
2018-11-12T14:15:11.995Z,9.77
2018-11-12T14:17:40.897Z,10.70
2018-11-12T14:20:09.297Z,9.90
2018-11-12T14:22:38.287Z,9.20
2018-11-12T14:25:07.793Z,9.83
2018-11-12T14:27:36.233Z,8.73
2018-11-12T14:30:04.644Z,10.87
2018-11-12T14:32:33.430Z,9.83
2018-11-12T14:35:01.807Z,10.13
2018-11-12T14:37:30.210Z,12.40
2018-11-12T14:39:58.587Z,12.07
2018-11-12T14:42:27.015Z,12.20
2018-11-12T14:44:56.038Z,10.43
2018-11-12T14:47:24.429Z,9.77
2018-11-12T14:49:52.811Z,10.40
2018-11-12T14:52:21.396Z,10.60
2018-11-12T14:54:49.830Z,11.53
2018-11-12T14:57:18.201Z,9.90
2018-11-12T14:59:46.623Z,11.30
2018-11-12T15:02:15.076Z,10.87
2018-11-12T15:04:43.455Z,9.87
2018-11-12T15:07:11.830Z,10.37
2018-11-12T15:09:40.239Z,11.83
2018-11-12T15:12:08.609Z,11.00
2018-11-12T15:14:37.051Z,9.90
2018-11-12T15:17:05.458Z,10.20
2018-11-12T15:19:33.880Z,11.83
2018-11-12T15:22:02.437Z,10.17
2018-11-12T15:24:30.838Z,10.33
2018-11-12T15:26:59.218Z,11.50
2018-11-12T15:29:27.729Z,11.20
2018-11-12T15:31:56.041Z,11.33
2018-11-12T15:34:24.438Z,10.97
2018-11-12T15:36:52.960Z,10.80
2018-11-12T15:39:21.258Z,11.20
2018-11-12T15:41:49.655Z,11.53
2018-11-12T15:44:18.044Z,11.10
2018-11-12T15:46:46.487Z,10.80
2018-11-12T15:49:14.907Z,12.63
2018-11-12T15:51:43.285Z,10.73
2018-11-12T15:54:11.698Z,11.00
2018-11-12T15:56:40.078Z,11.87
2018-11-12T15:59:08.469Z,10.67
2018-11-12T16:01:36.847Z,11.07
2018-11-12T16:04:05.454Z,11.30
2018-11-12T16:06:33.899Z,11.53
2018-11-12T16:09:02.261Z,11.47
2018-11-12T16:11:30.636Z,12.20
2018-11-12T16:13:59.033Z,13.23
2018-11-12T16:16:27.414Z,16.07
2018-11-12T16:18:55.827Z,13.20
2018-11-12T16:21:24.202Z,13.60
2018-11-12T16:23:52.594Z,13.50
2018-11-12T16:26:21.015Z,13.30
2018-11-12T16:28:49.395Z,12.07
2018-11-12T16:31:17.794Z,13.17
2018-11-12T16:33:46.170Z,12.33
2018-11-12T16:36:14.563Z,17.10
2018-11-12T16:38:42.958Z,14.90
2018-11-12T16:41:11.371Z,14.37
2018-11-12T16:43:39.767Z,14.07
2018-11-12T16:46:08.262Z,13.97
2018-11-12T16:48:36.575Z,13.40
2018-11-12T16:51:04.983Z,18.80
2018-11-12T16:53:33.366Z,17.50
2018-11-12T16:56:01.767Z,17.17
2018-11-12T16:58:30.150Z,24.03
2018-11-12T17:00:58.555Z,13.30
2018-11-12T17:03:26.935Z,18.70
2018-11-12T17:05:55.333Z,18.27
2018-11-12T17:08:23.766Z,17.27
2018-11-12T17:10:52.166Z,13.63
2018-11-12T17:13:20.542Z,14.80
2018-11-12T17:15:48.942Z,13.40
2018-11-12T17:18:17.418Z,15.77
2018-11-12T17:20:45.825Z,14.80
2018-11-12T17:23:14.277Z,15.03
2018-11-12T17:25:42.678Z,15.63
2018-11-12T17:28:11.070Z,14.77
2018-11-12T17:30:39.464Z,16.20
2018-11-12T17:33:07.868Z,15.80
2018-11-12T17:35:36.271Z,14.70
2018-11-12T17:38:04.913Z,16.23
2018-11-12T17:40:33.323Z,17.30
2018-11-12T17:43:01.773Z,15.53
2018-11-12T17:45:30.159Z,16.30
2018-11-12T17:47:59.099Z,14.10
2018-11-12T17:50:27.527Z,15.27
2018-11-12T17:52:55.918Z,15.70
2018-11-12T17:55:24.360Z,15.83
2018-11-12T17:57:52.719Z,14.60
2018-11-12T18:00:23.270Z,12.57
2018-11-12T18:02:51.685Z,14.00
2018-11-12T18:05:20.100Z,14.93
2018-11-12T18:07:48.645Z,15.37
2018-11-12T18:10:17.778Z,14.00
2018-11-12T18:12:46.258Z,13.87
2018-11-12T18:15:16.066Z,14.50
2018-11-12T18:17:44.462Z,16.67
2018-11-12T18:20:16.531Z,14.40
2018-11-12T18:22:44.959Z,13.73
2018-11-12T18:25:13.757Z,15.17
2018-11-12T18:27:42.149Z,16.80
2018-11-12T18:30:14.253Z,17.30
2018-11-12T18:32:42.946Z,16.30
2018-11-12T18:35:11.446Z,16.40
2018-11-12T18:37:39.851Z,14.60
2018-11-12T18:40:10.221Z,15.03
2018-11-12T18:42:38.674Z,14.97
2018-11-12T18:45:09.444Z,14.00
2018-11-12T18:47:38.030Z,14.70
2018-11-12T18:50:08.486Z,14.70
2018-11-12T18:52:36.963Z,13.90
2018-11-12T18:55:06.622Z,14.27
2018-11-12T18:57:35.096Z,17.83
2018-11-12T19:00:04.010Z,21.20
2018-11-12T19:02:32.424Z,16.63
2018-11-12T19:05:00.853Z,14.20
2018-11-12T19:07:29.291Z,15.83
2018-11-12T19:09:57.701Z,15.00
2018-11-12T19:12:26.253Z,16.37
2018-11-12T19:14:54.674Z,15.13
2018-11-12T19:17:23.093Z,14.90
2018-11-12T19:19:51.474Z,14.47
2018-11-12T19:22:19.609Z,15.27
2018-11-12T19:24:48.013Z,13.97
2018-11-12T19:27:16.561Z,14.83
2018-11-12T19:29:44.911Z,14.47
2018-11-12T19:32:13.332Z,14.13
2018-11-12T19:34:41.716Z,14.07
2018-11-12T19:37:10.159Z,14.70
2018-11-12T19:39:38.530Z,13.80
2018-11-12T19:42:06.954Z,14.70
2018-11-12T19:44:35.347Z,13.37
2018-11-12T19:47:03.745Z,13.80
2018-11-12T19:49:32.128Z,14.00
2018-11-12T19:52:00.531Z,13.60
2018-11-12T19:54:28.938Z,13.20
2018-11-12T19:56:57.371Z,12.43
2018-11-12T19:59:25.746Z,13.70
2018-11-12T20:01:54.326Z,13.87
2018-11-12T20:04:22.731Z,12.60
2018-11-12T20:06:51.121Z,12.23
2018-11-12T20:09:19.682Z,11.53
2018-11-12T20:11:48.062Z,12.50
2018-11-12T20:14:16.553Z,11.93
2018-11-12T20:16:44.942Z,11.97
2018-11-12T20:19:13.505Z,11.10
2018-11-12T20:21:41.903Z,10.90
2018-11-12T20:24:10.313Z,12.93
2018-11-12T20:26:38.700Z,11.87
2018-11-12T20:29:07.125Z,12.90
2018-11-12T20:31:35.497Z,14.90
2018-11-12T20:34:03.947Z,14.87
2018-11-12T20:36:32.358Z,13.60
2018-11-12T20:39:00.820Z,14.13
2018-11-12T20:41:29.182Z,12.40
2018-11-12T20:43:57.618Z,12.70
2018-11-12T20:46:25.994Z,10.90
2018-11-12T20:48:54.434Z,11.20
2018-11-12T20:51:22.811Z,12.20
2018-11-12T20:53:51.230Z,11.00
2018-11-12T20:56:19.598Z,13.17
2018-11-12T20:58:48.019Z,11.77
2018-11-12T21:01:16.461Z,11.93
2018-11-12T21:03:44.862Z,12.50
2018-11-12T21:06:13.295Z,10.80
2018-11-12T21:08:41.702Z,11.47
2018-11-12T21:11:10.082Z,11.70
2018-11-12T21:13:38.482Z,11.73
2018-11-12T21:16:06.875Z,12.23
2018-11-12T21:18:35.298Z,11.87
2018-11-12T21:21:03.666Z,11.13
2018-11-12T21:23:32.054Z,10.50
2018-11-12T21:26:00.461Z,10.60
2018-11-12T21:28:28.830Z,9.70
2018-11-12T21:30:57.338Z,12.33
2018-11-12T21:33:25.719Z,9.43
2018-11-12T21:35:54.123Z,12.47
2018-11-12T21:38:22.514Z,10.90
2018-11-12T21:40:50.913Z,10.73
2018-11-12T21:43:19.492Z,10.77
2018-11-12T21:45:47.743Z,10.80
2018-11-12T21:48:16.128Z,10.10
2018-11-12T21:50:44.557Z,10.23
2018-11-12T21:53:12.931Z,9.53
2018-11-12T21:55:41.504Z,13.57
2018-11-12T21:58:09.886Z,11.07
2018-11-12T22:00:38.298Z,11.13
2018-11-12T22:03:06.706Z,11.07
2018-11-12T22:05:35.153Z,9.47
2018-11-12T22:08:04.342Z,9.33
2018-11-12T22:10:32.800Z,10.63
2018-11-12T22:13:01.173Z,10.10
2018-11-12T22:15:29.571Z,10.30
2018-11-12T22:17:57.949Z,10.80
2018-11-12T22:20:27.586Z,10.00
2018-11-12T22:22:55.954Z,9.63
2018-11-12T22:25:24.655Z,8.83
2018-11-12T22:27:53.585Z,10.13
2018-11-12T22:30:23.152Z,9.97
2018-11-12T22:32:52.430Z,8.97
2018-11-12T22:35:20.829Z,9.33
2018-11-12T22:37:49.489Z,9.10
2018-11-12T22:40:18.623Z,9.20
2018-11-12T22:42:48.306Z,9.10
2018-11-12T22:45:17.930Z,8.70
2018-11-12T22:47:46.907Z,9.20
2018-11-12T22:50:15.322Z,9.00
2018-11-12T22:52:44.373Z,8.87
2018-11-12T22:55:14.009Z,8.63
2018-11-12T22:57:42.379Z,7.90
2018-11-12T23:00:19.411Z,9.20
2018-11-12T23:02:48.444Z,8.23
2018-11-12T23:05:17.462Z,8.17
2018-11-12T23:07:46.737Z,8.73
2018-11-12T23:10:15.655Z,7.80
2018-11-12T23:12:44.152Z,8.13
2018-11-12T23:15:13.063Z,8.93
2018-11-12T23:17:41.590Z,8.90
2018-11-12T23:20:12.961Z,8.00
2018-11-12T23:22:42.134Z,7.90
2018-11-12T23:25:10.954Z,7.97
2018-11-12T23:27:39.717Z,7.47
2018-11-12T23:30:10.055Z,8.20
2018-11-12T23:32:38.437Z,8.73
2018-11-12T23:35:08.885Z,7.90
2018-11-12T23:37:37.283Z,7.60
2018-11-12T23:40:06.525Z,7.80
2018-11-12T23:42:34.937Z,8.10
2018-11-12T23:45:03.322Z,8.17
2018-11-12T23:47:31.732Z,7.93
2018-11-12T23:50:00.102Z,7.80
2018-11-12T23:52:28.493Z,8.20
2018-11-12T23:54:57.068Z,8.70
2018-11-12T23:57:25.517Z,7.90
2018-11-12T23:59:54.046Z,8.50
